Time;durP1;ratioP1;P1;durP2;ratioP2;P2;SDS_P1;SDS_P2;PMS_P1;PMS_P2;Temp;Humidity;BMP_temperature;BMP_pressure;BME280_temperature;BME280_humidity;BME280_pressure;Samples;Min_cycle;Max_cycle;Signal;HPM_P1;HPM_P2
2023/07/29 00:02:20;;;;;;;3.77;3.47;;;;;;;17.57;100.00;97666.09;4994260;28;20217;-77
2023/07/29 00:04:46;;;;;;;5.87;3.50;;;;;;;17.60;100.00;97663.66;4994138;28;20199;-77
2023/07/29 00:07:12;;;;;;;5.70;3.30;;;;;;;17.65;100.00;97652.88;4994414;28;20207;-77
2023/07/29 00:09:39;;;;;;;4.00;3.43;;;;;;;17.66;100.00;97654.53;4994397;28;20234;-77
2023/07/29 00:12:05;;;;;;;5.20;3.33;;;;;;;17.73;100.00;97663.09;4993945;28;20211;-77
2023/07/29 00:14:32;;;;;;;6.60;2.90;;;;;;;17.74;100.00;97656.63;4993507;28;20206;-77
2023/07/29 00:16:58;;;;;;;5.97;3.23;;;;;;;17.80;100.00;97649.34;4994141;28;20209;-77
2023/07/29 00:19:25;;;;;;;4.67;3.70;;;;;;;17.74;100.00;97643.19;4994200;28;20237;-77
2023/07/29 00:21:51;;;;;;;3.90;3.50;;;;;;;17.71;100.00;97651.00;4993723;28;20622;-77
2023/07/29 00:24:17;;;;;;;5.57;3.23;;;;;;;17.67;100.00;97645.38;4993702;28;20670;-77
2023/07/29 00:26:44;;;;;;;4.20;2.83;;;;;;;17.67;100.00;97645.38;4993902;28;20574;-78
2023/07/29 00:29:10;;;;;;;6.93;2.63;;;;;;;17.64;100.00;97640.53;4998332;28;20253;-78
2023/07/29 00:31:36;;;;;;;2.77;2.40;;;;;;;17.66;100.00;97646.44;5000160;28;20214;-78
2023/07/29 00:34:03;;;;;;;5.23;2.50;;;;;;;17.69;100.00;97651.25;4999215;28;20207;-78
2023/07/29 00:36:29;;;;;;;2.83;2.50;;;;;;;17.78;100.00;97651.53;4998510;28;20211;-78
2023/07/29 00:38:57;;;;;;;4.73;2.27;;;;;;;17.73;100.00;97646.94;4998215;28;20237;-78
2023/07/29 00:41:23;;;;;;;3.47;2.30;;;;;;;17.75;100.00;97650.19;4998192;28;20207;-78
2023/07/29 00:43:50;;;;;;;2.97;2.23;;;;;;;17.80;100.00;97644.78;4998226;28;20203;-78
2023/07/29 00:46:17;;;;;;;2.53;2.30;;;;;;;17.89;100.00;97636.94;4998563;28;20218;-78
2023/07/29 00:48:44;;;;;;;2.60;2.40;;;;;;;17.82;100.00;97639.94;4996488;28;20227;-78
2023/07/29 00:51:10;;;;;;;3.77;2.60;;;;;;;17.80;100.00;97635.91;4997699;28;20215;-78
2023/07/29 00:53:37;;;;;;;4.13;2.30;;;;;;;17.79;100.00;97635.13;4998261;28;20207;-78
2023/07/29 00:56:03;;;;;;;6.53;2.53;;;;;;;17.79;100.00;97639.69;4998000;28;20207;-78
2023/07/29 00:58:30;;;;;;;3.43;2.40;;;;;;;17.70;100.00;97644.00;4998095;28;20219;-78
2023/07/29 01:00:57;;;;;;;3.07;2.40;;;;;;;17.64;100.00;97645.13;4998403;28;20227;-78
2023/07/29 01:03:23;;;;;;;3.20;2.90;;;;;;;17.64;100.00;97632.47;4998616;28;20210;-78
2023/07/29 01:06:10;;;;;;;2.80;2.60;;;;;;;17.75;100.00;97641.31;4998138;28;20214;-78
2023/07/29 01:08:57;;;;;;;4.00;2.57;;;;;;;17.72;100.00;97637.28;4998241;28;20223;-78
2023/07/29 01:12:01;;;;;;;3.90;2.80;;;;;;;17.77;100.00;97626.50;4998016;28;20538;-78
2023/07/29 01:14:42;;;;;;;2.90;2.60;;;;;;;17.74;100.00;97623.56;4997939;28;20199;-77
2023/07/29 01:17:12;;;;;;;3.83;2.90;;;;;;;17.76;100.00;97629.47;4996924;28;20195;-78
2023/07/29 01:19:53;;;;;;;2.67;2.47;;;;;;;17.68;100.00;97624.66;4997787;28;20230;-78
2023/07/29 01:22:22;;;;;;;4.53;2.43;;;;;;;17.65;100.00;97626.00;4997992;28;20218;-78
2023/07/29 01:24:48;;;;;;;3.87;2.57;;;;;;;17.73;100.00;97622.75;4996954;28;20206;-78
2023/07/29 01:27:14;;;;;;;3.43;2.73;;;;;;;17.71;100.00;97626.78;4996372;28;20688;-78
2023/07/29 01:29:41;;;;;;;4.27;2.70;;;;;;;17.74;100.00;97623.56;4998891;28;20710;-78
2023/07/29 01:32:24;;;;;;;3.30;2.60;;;;;;;17.67;100.00;97626.53;4999301;28;20207;-78
2023/07/29 01:34:59;;;;;;;5.70;2.80;;;;;;;17.69;100.00;97620.91;4997780;28;20187;-76
2023/07/29 01:37:28;;;;;;;3.00;2.50;;;;;;;17.78;100.00;97616.56;4995462;28;20203;-76
2023/07/29 01:39:58;;;;;;;2.93;2.73;;;;;;;17.73;100.00;97614.69;4995591;28;20291;-75
2023/07/29 01:42:25;;;;;;;4.53;2.70;;;;;;;17.84;100.00;97620.84;4996798;28;20215;-75
2023/07/29 01:44:52;;;;;;;3.20;2.40;;;;;;;17.75;100.00;97614.41;4996706;28;20203;-75
2023/07/29 01:47:18;;;;;;;2.50;2.30;;;;;;;17.74;100.00;97618.97;4996683;28;20211;-75
2023/07/29 01:49:45;;;;;;;2.43;2.23;;;;;;;17.79;100.00;97608.22;4994569;28;20231;-75
2023/07/29 01:52:11;;;;;;;2.70;2.50;;;;;;;17.77;100.00;97614.94;4996184;28;20215;-75
2023/07/29 01:54:38;;;;;;;2.97;2.30;;;;;;;17.75;100.00;97617.09;4996363;28;20221;-75
2023/07/29 01:57:04;;;;;;;2.40;2.20;;;;;;;17.85;100.00;97617.88;4995161;28;20207;-75
2023/07/29 01:59:30;;;;;;;2.33;2.13;;;;;;;17.88;100.00;97609.28;4996285;28;20238;-78
2023/07/29 02:01:57;;;;;;;3.70;2.53;;;;;;;17.87;100.00;97612.22;4997881;28;20207;-78
2023/07/29 02:04:23;;;;;;;4.77;2.50;;;;;;;17.88;100.00;97603.88;4997095;28;20207;-78
2023/07/29 02:06:49;;;;;;;2.73;2.53;;;;;;;17.91;100.00;97595.25;4996575;28;20207;-78
2023/07/29 02:09:16;;;;;;;2.10;2.00;;;;;;;17.85;100.00;97595.53;4997623;28;20227;-78
2023/07/29 02:11:42;;;;;;;4.43;2.40;;;;;;;17.81;100.00;97595.31;4996483;28;20208;-78
2023/07/29 02:14:08;;;;;;;3.03;2.50;;;;;;;17.85;100.00;97593.66;4997237;28;20207;-78
2023/07/29 02:16:36;;;;;;;2.27;1.73;;;;;;;17.74;100.00;97592.09;4996950;28;20218;-78
2023/07/29 02:19:03;;;;;;;2.90;1.80;;;;;;;17.84;100.00;97591.25;4996968;28;20233;-78
2023/07/29 02:21:29;;;;;;;2.20;2.00;;;;;;;17.71;100.00;97599.91;4996901;28;20334;-78
2023/07/29 02:23:55;;;;;;;1.60;1.50;;;;;;;17.74;100.00;97591.31;4996702;28;20217;-78
2023/07/29 02:26:23;;;;;;;2.93;1.90;;;;;;;17.64;100.00;97586.75;4996762;28;20207;-78
2023/07/29 02:28:49;;;;;;;2.47;2.23;;;;;;;17.62;100.00;97580.06;4995646;28;20227;-78
2023/07/29 02:31:24;;;;;;;2.70;2.30;;;;;;;17.65;100.00;97588.38;4996849;28;20204;-78
2023/07/29 02:33:50;;;;;;;2.77;2.30;;;;;;;17.64;100.00;97589.44;4997837;28;20187;-78
2023/07/29 02:36:17;;;;;;;2.67;2.20;;;;;;;17.68;100.00;97587.00;4996831;28;20207;-78
2023/07/29 02:38:44;;;;;;;6.03;2.70;;;;;;;17.67;100.00;97593.47;4996660;28;20698;-78
2023/07/29 02:41:12;;;;;;;2.60;2.40;;;;;;;17.68;100.00;97589.69;4996604;28;20230;-78
2023/07/29 02:43:40;;;;;;;5.37;2.33;;;;;;;17.61;100.00;97586.50;4997405;28;20211;-78
2023/07/29 02:46:07;;;;;;;2.50;2.30;;;;;;;17.56;100.00;97581.94;4996691;28;20207;-78
2023/07/29 02:48:33;;;;;;;3.07;2.30;;;;;;;17.60;100.00;97583.00;4996792;28;20315;-78
2023/07/29 02:50:59;;;;;;;3.90;2.40;;;;;;;17.65;100.00;97587.56;4995599;28;20211;-78
2023/07/29 02:53:26;;;;;;;3.43;2.63;;;;;;;17.67;100.00;97588.09;4997035;28;20666;-78
2023/07/29 02:55:52;;;;;;;3.63;2.40;;;;;;;17.59;100.00;97584.09;4996422;28;20207;-77
2023/07/29 02:58:19;;;;;;;4.17;3.00;;;;;;;17.61;100.00;97586.50;4996721;28;20227;-78
2023/07/29 03:00:47;;;;;;;4.03;2.93;;;;;;;17.64;100.00;97577.91;4996285;28;20698;-78
2023/07/29 03:03:13;;;;;;;2.97;2.77;;;;;;;17.65;100.00;97574.91;4995735;28;20207;-78
2023/07/29 03:05:40;;;;;;;3.97;2.90;;;;;;;17.54;100.00;97573.38;4996380;28;20686;-78
2023/07/29 03:08:06;;;;;;;3.07;2.77;;;;;;;17.63;100.00;97566.34;4996180;28;20302;-78
2023/07/29 03:10:36;;;;;;;2.97;2.70;;;;;;;17.54;100.00;97553.72;4996341;28;20209;-78
2023/07/29 03:13:02;;;;;;;4.13;2.50;;;;;;;17.60;100.00;97564.19;4995854;28;20621;-78
2023/07/29 03:15:28;;;;;;;3.03;2.60;;;;;;;17.60;100.00;97560.72;4995879;28;20667;-78
2023/07/29 03:17:55;;;;;;;2.67;2.47;;;;;;;17.55;100.00;97560.75;4995257;28;20216;-78
2023/07/29 03:20:21;;;;;;;3.20;2.40;;;;;;;17.60;100.00;97558.81;4996098;28;20227;-78
2023/07/29 03:22:47;;;;;;;5.97;2.80;;;;;;;17.58;100.00;97544.88;4996161;28;20214;-78
2023/07/29 03:25:14;;;;;;;5.13;2.60;;;;;;;17.55;100.00;97553.47;4996000;28;20203;-79
2023/07/29 03:27:40;;;;;;;4.20;3.03;;;;;;;17.54;100.00;97551.88;4998193;28;20211;-79
2023/07/29 03:30:07;;;;;;;2.70;2.50;;;;;;;17.57;100.00;97545.13;4997824;28;20223;-79
2023/07/29 03:32:34;;;;;;;6.80;2.57;;;;;;;17.56;100.00;97552.38;4996582;28;20203;-78
2023/07/29 03:35:00;;;;;;;3.87;2.60;;;;;;;17.55;100.00;97542.72;4996443;28;20567;-78
2023/07/29 03:37:26;;;;;;;4.33;1.90;;;;;;;17.55;100.00;97544.63;4995946;28;20214;-78
2023/07/29 03:39:53;;;;;;;2.60;1.80;;;;;;;17.63;100.00;97544.84;4995967;28;20227;-78
2023/07/29 03:42:19;;;;;;;4.20;2.00;;;;;;;17.65;100.00;97541.88;4996031;28;20207;-78
2023/07/29 03:44:45;;;;;;;2.43;2.23;;;;;;;17.84;100.00;97543.66;4996090;28;20207;-78
2023/07/29 03:47:12;;;;;;;2.03;1.80;;;;;;;17.70;100.00;97548.03;4996372;28;20213;-78
2023/07/29 03:49:38;;;;;;;2.13;1.70;;;;;;;18.02;100.00;97547.59;4995559;28;20239;-78
2023/07/29 03:52:05;;;;;;;4.20;2.00;;;;;;;17.76;100.00;97540.72;4996313;28;20198;-78
2023/07/29 03:54:31;;;;;;;1.97;1.83;;;;;;;17.76;100.00;97549.63;4996399;28;20218;-78
2023/07/29 03:56:58;;;;;;;4.27;1.83;;;;;;;17.77;100.00;97553.09;4996014;28;20207;-78
2023/07/29 03:59:24;;;;;;;2.30;1.77;;;;;;;17.77;100.00;97561.97;4996009;28;20231;-78
2023/07/29 04:01:50;;;;;;;3.13;1.83;;;;;;;17.76;100.00;97554.19;4995433;28;20215;-78
2023/07/29 04:04:17;;;;;;;2.27;2.07;;;;;;;17.83;100.00;97560.84;4996130;28;20213;-78
2023/07/29 04:06:43;;;;;;;5.53;2.30;;;;;;;17.79;100.00;97557.16;4995611;28;20203;-78
2023/07/29 04:09:10;;;;;;;4.67;2.10;;;;;;;17.75;100.00;97552.56;4994245;28;20227;-78
2023/07/29 04:11:36;;;;;;;3.17;2.10;;;;;;;17.66;100.00;97549.66;4994408;28;20210;-78
2023/07/29 04:14:02;;;;;;;4.33;2.27;;;;;;;17.71;100.00;97544.25;4994374;28;20207;-78
2023/07/29 04:16:29;;;;;;;2.47;2.00;;;;;;;17.65;100.00;97548.03;4995236;28;20250;-78
2023/07/29 04:18:55;;;;;;;4.17;2.23;;;;;;;17.64;100.00;97549.13;4994703;28;20281;-78
2023/07/29 04:21:22;;;;;;;2.53;2.03;;;;;;;17.59;100.00;97541.09;4994371;28;20231;-78
2023/07/29 04:23:48;;;;;;;2.30;1.83;;;;;;;17.68;100.00;97552.06;4993716;28;20207;-78
2023/07/29 04:26:15;;;;;;;6.40;2.40;;;;;;;17.76;100.00;97538.88;4993916;28;20202;-78
2023/07/29 04:28:41;;;;;;;2.40;2.20;;;;;;;17.67;100.00;97545.91;4994269;28;20274;-78
2023/07/29 04:31:07;;;;;;;2.83;2.20;;;;;;;17.66;100.00;97556.91;4995841;28;20729;-78
2023/07/29 04:33:34;;;;;;;4.33;2.23;;;;;;;17.55;100.00;97558.84;4995990;28;20294;-78
2023/07/29 04:36:00;;;;;;;2.90;2.27;;;;;;;17.61;100.00;97565.81;4995847;28;20213;-78
2023/07/29 04:38:33;;;;;;;10.20;3.00;;;;;;;17.67;100.00;97566.59;4996585;28;20317;-79
2023/07/29 04:41:01;;;;;;;5.97;2.60;;;;;;;17.58;100.00;97566.38;4995486;28;20686;-79
2023/07/29 04:43:32;;;;;;;5.00;2.60;;;;;;;17.60;100.00;97563.41;4996932;28;20208;-78
2023/07/29 04:45:58;;;;;;;4.97;2.70;;;;;;;17.64;100.00;97573.31;4996220;28;20203;-78
2023/07/29 04:48:25;;;;;;;7.57;2.83;;;;;;;17.70;100.00;97590.25;4996848;28;20238;-79
2023/07/29 04:50:51;;;;;;;2.60;2.40;;;;;;;17.78;100.00;97587.78;4995971;28;20218;-79
2023/07/29 04:53:17;;;;;;;4.73;2.50;;;;;;;17.80;100.00;97590.19;4996710;28;20203;-79
2023/07/29 04:55:44;;;;;;;2.57;2.27;;;;;;;17.84;100.00;97588.56;4996445;28;20294;-79
2023/07/29 04:58:11;;;;;;;7.00;2.80;;;;;;;17.95;100.00;97604.38;4994483;28;20294;-79
2023/07/29 05:00:38;;;;;;;3.37;2.83;;;;;;;17.86;100.00;97592.59;4994707;28;20295;-79
2023/07/29 05:03:04;;;;;;;6.33;3.40;;;;;;;17.70;100.00;97579.50;4994355;28;20207;-79
2023/07/29 05:05:31;;;;;;;4.37;2.70;;;;;;;17.78;100.00;97577.03;4994999;28;20203;-79
2023/07/29 05:07:57;;;;;;;4.37;2.87;;;;;;;17.94;100.00;97578.56;4993930;28;20214;-79
2023/07/29 05:10:23;;;;;;;4.73;2.63;;;;;;;17.94;100.00;97572.38;4993384;28;20207;-78
2023/07/29 05:12:50;;;;;;;3.07;2.77;;;;;;;17.95;100.00;97573.97;4993725;28;20226;-78
2023/07/29 05:15:18;;;;;;;4.43;3.03;;;;;;;17.87;100.00;97553.06;4997708;28;20689;-78
2023/07/29 05:17:44;;;;;;;4.70;2.80;;;;;;;17.95;100.00;97547.91;4997867;28;20664;-78
2023/07/29 05:20:11;;;;;;;4.07;2.67;;;;;;;18.07;100.00;97551.06;4997699;28;20697;-79
2023/07/29 05:22:37;;;;;;;4.13;2.80;;;;;;;17.93;100.00;97550.06;4999291;28;20594;-78
2023/07/29 05:25:04;;;;;;;4.13;2.43;;;;;;;17.81;100.00;97538.84;4998743;28;20671;-77
2023/07/29 05:27:31;;;;;;;3.70;2.80;;;;;;;17.80;100.00;97548.00;4997385;28;20214;-78
2023/07/29 05:29:57;;;;;;;3.20;2.90;;;;;;;17.81;100.00;97559.53;4998032;28;20231;-78
2023/07/29 05:32:23;;;;;;;4.03;2.70;;;;;;;17.90;100.00;97561.38;4998594;28;20688;-78
2023/07/29 05:34:50;;;;;;;4.37;3.37;;;;;;;17.90;100.00;97566.75;4998334;28;20208;-78
2023/07/29 05:37:16;;;;;;;4.50;2.87;;;;;;;17.94;100.00;97557.06;4997254;28;20298;-78
2023/07/29 05:39:42;;;;;;;3.63;3.00;;;;;;;17.96;100.00;97562.94;4996979;28;20227;-78
2023/07/29 05:42:09;;;;;;;5.80;3.37;;;;;;;18.05;100.00;97566.66;4996735;28;20706;-78
2023/07/29 05:44:35;;;;;;;4.20;2.90;;;;;;;18.10;100.00;97569.31;4996829;28;20218;-78
2023/07/29 05:47:02;;;;;;;3.90;3.07;;;;;;;18.23;100.00;97568.69;4996430;28;20217;-78
2023/07/29 05:49:28;;;;;;;4.80;3.20;;;;;;;18.29;100.00;97564.91;4996492;28;20239;-78
2023/07/29 05:51:55;;;;;;;3.93;3.03;;;;;;;18.22;100.00;97564.41;4997066;28;20191;-78
2023/07/29 05:54:21;;;;;;;3.90;2.67;;;;;;;18.40;100.00;97558.41;4996203;28;20211;-75
2023/07/29 05:56:48;;;;;;;5.83;3.00;;;;;;;18.47;100.00;97558.91;4996361;28;20671;-75
2023/07/29 05:59:14;;;;;;;3.93;2.77;;;;;;;18.47;100.00;97550.81;4996516;28;20227;-75
2023/07/29 06:01:40;;;;;;;3.07;2.70;;;;;;;18.49;100.00;97542.44;4996504;28;20227;-75
2023/07/29 06:04:07;;;;;;;2.97;2.77;;;;;;;18.55;100.00;97547.50;4997602;28;20207;-75
2023/07/29 06:06:33;;;;;;;3.10;2.87;;;;;;;18.69;100.00;97532.31;4996483;28;20212;-75
2023/07/29 06:09:00;;;;;;;3.77;2.93;;;;;;;18.78;100.00;97530.59;4996206;28;20238;-75
2023/07/29 06:11:26;;;;;;;3.10;2.80;;;;;;;18.75;100.00;97541.97;4996433;28;20210;-75
2023/07/29 06:13:52;;;;;;;3.50;3.20;;;;;;;18.92;100.00;97536.94;4996318;28;20210;-75
2023/07/29 06:16:19;;;;;;;4.57;3.07;;;;;;;18.88;100.00;97535.91;4995846;28;20203;-75
2023/07/29 06:18:45;;;;;;;3.37;3.07;;;;;;;18.90;100.00;97546.38;4996215;28;20231;-75
2023/07/29 06:21:16;;;;;;;5.60;2.87;;;;;;;18.99;100.00;97547.38;4995790;28;20230;-75
2023/07/29 06:23:43;;;;;;;4.80;2.83;;;;;;;19.04;100.00;97545.44;4996207;28;20282;-75
2023/07/29 06:26:09;;;;;;;4.80;2.80;;;;;;;19.03;100.00;97543.84;4995780;28;20207;-75
2023/07/29 06:28:36;;;;;;;3.40;2.70;;;;;;;18.89;100.00;97552.88;4996443;28;20227;-75
2023/07/29 06:31:02;;;;;;;3.90;2.83;;;;;;;18.98;100.00;97554.66;4997708;28;20207;-75
2023/07/29 06:33:28;;;;;;;3.03;2.73;;;;;;;18.86;100.00;97545.38;4997669;28;20239;-75
2023/07/29 06:35:55;;;;;;;3.40;3.10;;;;;;;18.94;100.00;97550.94;4995996;28;20219;-75
2023/07/29 06:38:22;;;;;;;4.53;3.00;;;;;;;19.04;100.00;97560.78;4995641;28;20231;-75
2023/07/29 06:40:49;;;;;;;2.57;2.37;;;;;;;19.00;100.00;97559.78;4995735;28;20222;-75
2023/07/29 06:43:15;;;;;;;4.03;2.63;;;;;;;18.84;100.00;97561.81;4995925;28;20219;-75
2023/07/29 06:45:42;;;;;;;3.10;2.80;;;;;;;18.75;100.00;97565.38;4995901;28;20619;-75
2023/07/29 06:48:09;;;;;;;3.13;2.70;;;;;;;18.81;100.00;97565.06;4994239;28;20584;-75
2023/07/29 06:50:35;;;;;;;3.90;3.07;;;;;;;18.86;100.00;97561.53;4995384;28;20298;-75
2023/07/29 06:53:01;;;;;;;4.97;2.73;;;;;;;18.88;100.00;97568.25;4995610;28;20637;-75
2023/07/29 06:55:28;;;;;;;5.77;3.20;;;;;;;19.10;100.00;97567.75;4995537;28;20203;-75
2023/07/29 06:57:54;;;;;;;4.77;3.40;;;;;;;19.17;100.00;97570.91;4995290;28;20215;-73
2023/07/29 07:00:20;;;;;;;3.83;3.33;;;;;;;19.13;100.00;97569.84;4995375;28;20229;-73
2023/07/29 07:02:47;;;;;;;5.33;3.20;;;;;;;19.04;100.00;97580.47;4995357;28;20207;-73
2023/07/29 07:05:13;;;;;;;5.53;3.07;;;;;;;19.02;100.00;97587.22;4994940;28;20222;-73
2023/07/29 07:07:40;;;;;;;5.20;2.90;;;;;;;18.86;100.00;97596.53;4994922;28;20211;-73
2023/07/29 07:10:06;;;;;;;4.10;3.20;;;;;;;18.72;100.00;97607.16;4994932;28;20232;-73
2023/07/29 07:12:33;;;;;;;3.87;2.60;;;;;;;18.73;100.00;97592.59;4995072;28;20207;-72
2023/07/29 07:14:59;;;;;;;2.63;2.43;;;;;;;18.69;100.00;97605.00;4995199;28;20238;-72
2023/07/29 07:17:25;;;;;;;3.70;2.43;;;;;;;18.60;100.00;97606.69;4995090;28;20231;-72
2023/07/29 07:19:52;;;;;;;3.30;2.40;;;;;;;18.80;100.00;97606.56;4994888;28;20267;-72
2023/07/29 07:22:18;;;;;;;2.80;2.43;;;;;;;18.83;100.00;97605.97;4994738;28;20231;-72
2023/07/29 07:24:45;;;;;;;3.83;2.77;;;;;;;18.81;100.00;97605.47;4994840;28;20223;-72
2023/07/29 07:27:11;;;;;;;4.80;2.17;;;;;;;18.76;100.00;97597.41;4994820;28;20209;-72
2023/07/29 07:29:38;;;;;;;2.57;2.00;;;;;;;18.80;100.00;97600.34;4995559;28;20227;-72
2023/07/29 07:32:04;;;;;;;4.03;2.30;;;;;;;18.91;100.00;97591.91;4996107;28;20234;-73
2023/07/29 07:34:30;;;;;;;4.10;2.17;;;;;;;19.03;100.00;97605.81;4995727;28;20722;-72
2023/07/29 07:36:57;;;;;;;5.57;2.47;;;;;;;19.10;100.00;97597.41;4994059;28;20208;-72
2023/07/29 07:39:23;;;;;;;3.60;2.47;;;;;;;19.14;100.00;97595.75;4994492;28;20224;-72
2023/07/29 07:41:50;;;;;;;3.43;1.97;;;;;;;19.14;100.00;97593.84;4994543;28;20227;-72
2023/07/29 07:44:17;;;;;;;4.40;1.90;;;;;;;19.16;100.00;97593.56;4994581;28;20218;-73
2023/07/29 07:46:44;;;;;;;2.80;1.60;;;;;;;19.13;100.00;97589.53;4994242;28;20211;-73
2023/07/29 07:49:10;;;;;;;3.10;1.50;;;;;;;19.37;100.00;97598.47;4993976;28;20714;-73
2023/07/29 07:51:37;;;;;;;1.93;1.40;;;;;;;19.45;100.00;97589.00;4994508;28;20184;-73
2023/07/29 07:54:03;;;;;;;2.93;1.40;;;;;;;19.42;100.00;97601.13;4994423;28;20207;-73
2023/07/29 07:56:29;;;;;;;1.50;1.40;;;;;;;19.44;100.00;97588.16;4994473;28;20208;-73
2023/07/29 07:58:56;;;;;;;1.70;1.30;;;;;;;19.39;100.00;97595.50;4994036;28;20231;-73
2023/07/29 08:01:22;;;;;;;3.30;1.77;;;;;;;19.39;100.00;97587.41;4994285;28;20223;-75
2023/07/29 08:03:48;;;;;;;3.23;1.57;;;;;;;19.50;100.00;97584.31;4994550;28;20208;-75
2023/07/29 08:06:15;;;;;;;2.90;1.60;;;;;;;19.63;100.00;97586.31;4994402;28;20212;-75
2023/07/29 08:08:41;;;;;;;4.60;1.77;;;;;;;19.83;100.00;97595.25;4994203;28;20594;-75
2023/07/29 08:11:07;;;;;;;1.60;1.40;;;;;;;19.91;100.00;97600.84;4994122;28;20681;-75
2023/07/29 08:13:34;;;;;;;2.13;1.50;;;;;;;19.76;100.00;97608.31;4994212;28;20208;-75
2023/07/29 08:16:00;;;;;;;2.10;1.43;;;;;;;19.78;100.00;97617.72;4994324;28;20207;-75
2023/07/29 08:18:27;;;;;;;1.50;1.40;;;;;;;19.89;100.00;97619.19;4994079;28;20223;-75
2023/07/29 08:20:58;;;;;;;1.30;1.20;;;;;;;20.03;100.00;97624.69;4994179;28;20575;-75
2023/07/29 08:23:26;;;;;;;2.10;1.90;;;;;;;20.01;100.00;97633.09;4993742;28;20581;-75
2023/07/29 08:26:00;;;;;;;4.13;1.60;;;;;;;19.98;100.00;97630.16;4994119;28;20210;-75
2023/07/29 08:28:27;;;;;;;2.10;1.40;;;;;;;20.03;100.00;97624.69;4993661;28;20713;-75
2023/07/29 08:30:54;;;;;;;1.17;1.17;;;;;;;19.99;100.00;97632.56;4996020;28;20203;-75
2023/07/29 08:33:20;;;;;;;3.40;1.40;;;;;;;19.94;100.00;97629.91;4995544;28;20203;-75
2023/07/29 08:35:47;;;;;;;1.20;1.20;;;;;;;20.01;100.00;97619.59;4994761;28;20215;-75
2023/07/29 08:38:13;;;;;;;1.37;1.27;;;;;;;20.06;100.00;97619.53;4993622;28;20211;-73
2023/07/29 08:40:47;;;;;;;1.60;1.50;;;;;;;20.00;100.00;97620.69;4993203;28;20207;-73
2023/07/29 08:43:17;;;;;;;2.97;1.57;;;;;;;20.19;100.00;97612.63;4993753;28;20196;-73
2023/07/29 08:45:45;;;;;;;1.50;1.40;;;;;;;20.28;100.00;97614.41;4993751;28;20195;-73
2023/07/29 08:48:13;;;;;;;1.30;1.20;;;;;;;20.31;100.00;97623.81;4993712;28;20562;-73
2023/07/29 08:50:40;;;;;;;1.40;1.30;;;;;;;20.56;100.00;97615.34;4996659;28;20675;-73
2023/07/29 08:53:06;;;;;;;1.40;1.30;;;;;;;20.65;100.00;97621.69;4997713;28;20203;-73
2023/07/29 08:55:33;;;;;;;1.27;1.17;;;;;;;20.82;100.00;97624.66;4997715;28;20249;-73
2023/07/29 08:58:01;;;;;;;1.30;1.20;;;;;;;20.85;100.00;97626.78;4997447;28;20203;-73
2023/07/29 09:00:29;;;;;;;1.53;1.43;;;;;;;21.09;100.00;97627.50;4997632;28;20207;-73
2023/07/29 09:02:57;;;;;;;1.53;1.30;;;;;;;21.26;100.00;97631.22;4997458;28;20242;-73
2023/07/29 09:05:24;;;;;;;1.20;1.20;;;;;;;21.32;100.00;97630.06;4996127;28;20265;-73
2023/07/29 09:07:52;;;;;;;1.30;1.30;;;;;;;21.45;100.00;97623.88;4997436;28;20207;-73
2023/07/29 09:10:23;;;;;;;1.40;1.30;;;;;;;21.51;100.00;97619.16;4996967;28;20241;-73
2023/07/29 09:12:50;;;;;;;1.87;1.20;;;;;;;21.66;100.00;97618.88;4997296;28;20195;-75
2023/07/29 09:15:28;;;;;;;1.27;1.20;;;;;;;21.84;100.00;97612.59;4997021;28;20218;-76
2023/07/29 09:17:56;;;;;;;1.27;1.20;;;;;;;21.69;100.00;97604.72;4996905;28;20195;-76
2023/07/29 09:20:27;;;;;;;1.42;1.33;;;;;;;21.60;100.00;97620.06;4997304;28;20278;-75
2023/07/29 09:22:59;;;;;;;5.30;1.40;;;;;;;21.77;100.00;97612.19;4997078;28;20224;-75
2023/07/29 09:25:30;;;;;;;1.90;1.30;;;;;;;21.71;100.00;97605.28;4997219;28;20207;-75
2023/07/29 09:28:00;;;;;;;1.45;1.35;;;;;;;21.84;100.00;97615.31;4997014;28;20191;-75
2023/07/29 09:30:26;;;;;;;1.40;1.30;;;;;;;22.15;100.00;97616.28;4998435;28;20203;-76
2023/07/29 09:32:57;;;;;;;1.50;1.40;;;;;;;22.50;100.00;97610.09;4998486;28;20216;-74
2023/07/29 09:35:25;;;;;;;1.33;1.23;;;;;;;22.59;100.00;97611.78;4997355;28;20211;-75
2023/07/29 09:37:52;;;;;;;1.30;1.30;;;;;;;22.41;100.00;97615.44;4996993;28;20286;-75
2023/07/29 09:40:19;;;;;;;1.40;1.30;;;;;;;22.53;100.00;97601.38;4996458;28;20602;-75
2023/07/29 09:42:51;;;;;;;1.13;1.13;;;;;;;22.35;100.00;97615.84;4996349;28;20700;-75
2023/07/29 09:45:24;;;;;;;1.98;1.30;;;;;;;22.49;100.00;97627.47;4996377;28;20659;-75
2023/07/29 09:47:51;;;;;;;2.75;2.00;;;;;;;22.54;100.00;97632.78;4996723;28;20195;-75
2023/07/29 09:50:18;;;;;;;2.47;1.30;;;;;;;22.18;100.00;97624.59;4996245;28;20235;-75
2023/07/29 09:52:45;;;;;;;1.20;1.20;;;;;;;22.27;100.00;97613.84;4996761;28;20209;-75
2023/07/29 09:55:14;;;;;;;1.50;1.30;;;;;;;22.50;100.00;97623.66;4996131;28;20696;-75
2023/07/29 09:57:41;;;;;;;1.65;1.55;;;;;;;22.51;100.00;97619.81;4996562;28;20250;-73
2023/07/29 10:00:10;;;;;;;1.52;1.42;;;;;;;22.52;100.00;97616.03;4995800;28;20673;-75
2023/07/29 10:02:39;;;;;;;3.03;1.85;;;;;;;22.66;100.00;97606.72;4988951;28;20224;-75
2023/07/29 10:05:08;;;;;;;1.55;1.45;;;;;;;22.72;100.00;97604.72;4969384;28;20223;-75
2023/07/29 10:07:37;;;;;;;1.58;1.48;;;;;;;22.74;100.00;97602.50;4983777;28;20716;-75
2023/07/29 10:10:05;;;;;;;1.35;1.33;;;;;;;22.95;100.00;97600.88;4987713;28;20233;-75
2023/07/29 10:12:33;;;;;;;1.67;1.58;;;;;;;23.15;100.00;97595.75;4987744;28;20199;-74
2023/07/29 10:15:07;;;;;;;1.65;1.55;;;;;;;23.45;100.00;97586.06;4987558;28;20600;-75
2023/07/29 10:17:36;;;;;;;1.67;1.58;;;;;;;23.40;100.00;97594.34;4987329;28;20673;-74
2023/07/29 10:20:05;;;;;;;1.52;1.42;;;;;;;23.18;100.00;97597.84;4987422;28;20231;-75
2023/07/29 10:22:41;;;;;;;1.50;1.40;;;;;;;22.73;100.00;97603.59;4987186;28;20997;-74
2023/07/29 10:25:17;;;;;;;2.40;1.40;;;;;;;22.14;100.00;97603.84;4987963;28;20206;-74
2023/07/29 10:28:21;;;;;;;1.15;1.15;;;;;;;21.76;100.00;97607.88;4987423;28;20215;-74
2023/07/29 10:30:47;;;;;;;1.20;1.10;;;;;;;21.43;100.00;97609.06;4960855;28;20208;-74
2023/07/29 10:33:14;;;;;;;1.45;1.20;;;;;;;21.32;100.00;97608.44;4980528;28;20701;-74
2023/07/29 10:35:42;;;;;;;2.35;1.30;;;;;;;21.36;100.00;97614.84;4987279;28;20277;-74
2023/07/29 10:38:09;;;;;;;1.50;1.38;;;;;;;21.33;100.00;97615.44;4969724;28;20207;-74
2023/07/29 10:40:52;;;;;;;1.65;1.33;;;;;;;21.51;100.00;97616.44;4986832;28;20211;-74
2023/07/29 10:43:38;;;;;;;1.17;1.13;;;;;;;21.61;100.00;97621.69;4986982;28;20226;-74
2023/07/29 10:46:19;;;;;;;1.67;1.13;;;;;;;21.65;100.00;97623.47;4987517;28;20225;-78
2023/07/29 10:48:58;;;;;;;1.38;1.20;;;;;;;21.77;100.00;97625.72;4991233;28;20231;-80
2023/07/29 10:51:38;;;;;;;2.03;1.52;;;;;;;21.87;100.00;97618.22;5001801;28;20222;-80
2023/07/29 10:54:10;;;;;;;1.33;1.30;;;;;;;21.91;100.00;97619.22;5001929;28;20213;-81
2023/07/29 10:56:40;;;;;;;1.70;1.50;;;;;;;22.21;100.00;97628.59;5001871;28;20647;-80
2023/07/29 10:59:12;;;;;;;1.30;1.30;;;;;;;22.57;100.00;97624.03;4999498;28;20268;-79
2023/07/29 11:01:42;;;;;;;1.88;1.20;;;;;;;22.54;100.00;97611.91;4999556;28;20281;-80
2023/07/29 11:04:23;;;;;;;1.33;1.23;;;;;;;22.43;100.00;97612.41;4999745;28;20207;-80
2023/07/29 11:07:04;;;;;;;1.33;1.15;;;;;;;22.83;100.00;97622.34;4999407;28;20217;-80
2023/07/29 11:09:49;;;;;;;1.60;1.50;;;;;;;23.08;100.00;97625.25;4998484;28;20329;-79
2023/07/29 11:12:35;;;;;;;1.50;1.40;;;;;;;23.35;100.00;97624.31;4994052;28;20693;-76
2023/07/29 11:15:12;;;;;;;1.20;1.20;;;;;;;23.48;100.00;97626.13;4994816;28;20203;-75
2023/07/29 11:17:50;;;;;;;1.45;1.40;;;;;;;23.46;100.00;97612.88;4995116;28;20191;-75
2023/07/29 11:20:19;;;;;;;1.95;1.63;;;;;;;23.75;100.00;97615.09;4994692;28;20241;-75
2023/07/29 11:22:46;;;;;;;1.30;1.30;;;;;;;23.71;100.00;97614.09;4995145;28;20234;-75
2023/07/29 11:25:15;;;;;;;1.85;1.50;;;;;;;23.74;100.00;97616.22;4996112;28;20226;-75
2023/07/29 11:27:41;;;;;;;1.30;1.20;;;;;;;23.41;100.00;97617.63;4996546;28;20215;-75
2023/07/29 11:30:10;;;;;;;2.85;1.50;;;;;;;23.29;100.00;97614.72;4995674;28;20238;-75